Terminal Aerodrome Forecast
Issued by NWS Tulsa, OK

Home | Current Version | Previous Version | Text Only | Print | Product List | Glossary Off
Versions: 1 2 3 4 5 6 7 8 9 10 11 12 13 14 15 16 17 18 19 20 21

000
FTUS44 KTSA 190700 AAB
TAFTUL
TAF AMD
KTUL 190715Z 1907/2006 06008KT P6SM -RA BKN080
     FM190900 00000KT P6SM BKN050
     FM191500 VRB06KT P6SM VCTS BKN050CB
      TEMPO 1918/1922 2SM TSRA BR BKN030CB
     FM192200 33011G22KT P6SM BKN050 PROB30 1922/2002 3SM -TSRA BR
      BKN030CB=

USA.gov is the U.S. government's official web portal to all federal, state and local government web resources and services.